createdAt,value
2019-05-01T00:02:43.554Z,82.64
2019-05-01T00:05:24.018Z,82.44
2019-05-01T00:07:57.712Z,83.22
2019-05-01T00:10:29.090Z,83.16
2019-05-01T00:13:01.789Z,83.87
2019-05-01T00:15:36.506Z,83.98
2019-05-01T00:18:08.414Z,83.77
2019-05-01T00:20:41.610Z,84.20
2019-05-01T00:23:14.328Z,84.54
2019-05-01T00:25:46.091Z,84.30
2019-05-01T00:28:18.322Z,84.32
2019-05-01T00:30:50.980Z,84.98
2019-05-01T00:33:22.431Z,84.42
2019-05-01T00:35:55.382Z,84.66
2019-05-01T00:38:31.755Z,85.03
2019-05-01T00:41:02.793Z,85.35
2019-05-01T00:43:35.390Z,85.56
2019-05-01T00:46:07.146Z,85.18
2019-05-01T00:48:39.651Z,85.21
2019-05-01T00:51:12.126Z,86.51
2019-05-01T00:53:44.365Z,86.89
2019-05-01T00:56:44.685Z,87.28
2019-05-01T00:59:37.837Z,87.08
2019-05-01T01:02:16.275Z,86.32
2019-05-01T01:04:47.391Z,87.05
2019-05-01T01:07:18.882Z,87.40
2019-05-01T01:09:49.994Z,87.89
2019-05-01T01:12:21.651Z,87.58
2019-05-01T01:14:52.930Z,87.04
2019-05-01T01:17:24.406Z,87.45
2019-05-01T01:19:57.030Z,86.36
2019-05-01T01:22:28.591Z,86.18
2019-05-01T01:25:00.309Z,86.87
2019-05-01T01:27:33.380Z,87.41
2019-05-01T01:30:05.001Z,87.51
2019-05-01T01:32:37.585Z,86.51
2019-05-01T01:35:08.992Z,86.21
2019-05-01T01:37:40.998Z,86.60
2019-05-01T01:40:13.639Z,86.54
2019-05-01T01:42:47.877Z,86.17
2019-05-01T01:45:39.102Z,86.68
2019-05-01T01:48:14.093Z,85.25
2019-05-01T01:50:47.574Z,85.82
2019-05-01T01:53:22.695Z,87.36
2019-05-01T01:55:56.151Z,86.79
2019-05-01T01:58:29.259Z,88.14
2019-05-01T02:01:18.820Z,88.70
2019-05-01T02:03:56.865Z,87.64
2019-05-01T02:06:29.727Z,87.03
2019-05-01T02:09:01.012Z,87.88
2019-05-01T02:11:33.886Z,86.63
2019-05-01T02:14:05.185Z,86.32
2019-05-01T02:16:36.540Z,86.76
2019-05-01T02:19:07.918Z,86.63
2019-05-01T02:21:39.170Z,87.38
2019-05-01T02:24:12.803Z,87.73
2019-05-01T02:26:47.708Z,87.94
2019-05-01T02:29:25.536Z,86.96
2019-05-01T02:32:00.132Z,88.19
2019-05-01T02:34:33.746Z,88.10
2019-05-01T02:37:06.528Z,88.24
2019-05-01T02:39:39.302Z,87.53
2019-05-01T02:42:14.813Z,87.03
2019-05-01T02:44:52.782Z,87.20
2019-05-01T02:47:32.711Z,88.02
2019-05-01T02:50:14.545Z,88.96
2019-05-01T02:52:47.007Z,87.83
2019-05-01T02:55:27.736Z,88.37
2019-05-01T02:58:01.693Z,88.87
2019-05-01T03:00:33.289Z,89.39
2019-05-01T03:03:06.386Z,89.10
2019-05-01T03:05:38.007Z,88.84
2019-05-01T03:08:09.999Z,88.40
2019-05-01T03:10:41.148Z,87.49
2019-05-01T03:13:16.423Z,87.56
2019-05-01T03:15:49.153Z,87.50
2019-05-01T03:18:26.152Z,88.55
2019-05-01T03:24:05.425Z,89.53
2019-05-01T03:26:37.673Z,89.05
2019-05-01T03:29:09.520Z,89.61
2019-05-01T03:31:40.950Z,89.73
2019-05-01T03:34:13.973Z,89.37
2019-05-01T03:36:46.990Z,89.74
2019-05-01T03:39:19.285Z,89.67
2019-05-01T03:41:51.223Z,90.38
2019-05-01T03:44:22.716Z,90.44
2019-05-01T03:46:54.795Z,90.40
2019-05-01T03:49:27.083Z,90.57
2019-05-01T03:51:58.890Z,90.14
2019-05-01T03:54:30.683Z,90.43
2019-05-01T03:57:02.787Z,91.02
2019-05-01T03:59:36.079Z,89.96
2019-05-01T04:02:34.385Z,88.65
2019-05-01T04:05:06.989Z,88.81
2019-05-01T04:07:40.865Z,88.47
2019-05-01T04:10:12.554Z,88.01
2019-05-01T04:12:44.009Z,88.84
2019-05-01T04:15:17.518Z,88.59
2019-05-01T04:17:53.229Z,87.65
2019-05-01T04:20:25.911Z,88.18
2019-05-01T04:22:57.064Z,87.56
2019-05-01T04:25:28.311Z,87.90
2019-05-01T04:28:04.614Z,87.76
2019-05-01T04:31:03.556Z,88.25
2019-05-01T04:33:36.326Z,87.92
2019-05-01T04:36:13.874Z,88.04
2019-05-01T04:38:46.613Z,87.88
2019-05-01T04:41:19.491Z,88.55
2019-05-01T04:43:51.177Z,88.22
2019-05-01T04:46:22.599Z,88.00
2019-05-01T04:48:55.250Z,88.34
2019-05-01T04:51:27.008Z,86.76
2019-05-01T04:53:59.436Z,86.08
2019-05-01T04:56:30.969Z,85.93
2019-05-01T04:59:03.882Z,86.09
2019-05-01T05:02:01.227Z,86.19
2019-05-01T05:04:32.994Z,85.41
2019-05-01T05:07:04.345Z,85.69
2019-05-01T05:09:43.876Z,84.87
2019-05-01T05:12:33.351Z,84.71
2019-05-01T05:15:24.240Z,84.97
2019-05-01T05:17:55.705Z,84.45
2019-05-01T05:20:28.500Z,83.62
2019-05-01T05:23:00.956Z,83.86
2019-05-01T05:25:33.815Z,83.03
2019-05-01T05:28:05.634Z,82.64
2019-05-01T05:30:38.107Z,83.32
2019-05-01T05:33:39.023Z,82.75
2019-05-01T05:36:12.381Z,82.72
2019-05-01T05:39:00.544Z,82.06
2019-05-01T05:41:33.477Z,82.41
2019-05-01T05:44:05.039Z,83.11
2019-05-01T05:46:36.345Z,82.88
2019-05-01T05:49:07.704Z,82.31
2019-05-01T05:51:53.267Z,83.24
2019-05-01T05:54:45.924Z,82.89
2019-05-01T05:57:40.503Z,82.48
2019-05-01T06:00:44.690Z,82.80
2019-05-01T06:03:38.054Z,80.90
2019-05-01T06:06:31.504Z,80.95
2019-05-01T06:09:13.308Z,79.90
2019-05-01T06:11:59.074Z,79.39
2019-05-01T06:15:06.367Z,79.00
2019-05-01T06:17:48.184Z,78.55
2019-05-01T06:20:31.852Z,78.50
2019-05-01T06:23:25.836Z,79.05
2019-05-01T06:26:20.522Z,79.41
2019-05-01T06:28:56.102Z,79.08
2019-05-01T06:31:27.869Z,77.78
2019-05-01T06:33:59.955Z,78.39
2019-05-01T06:36:31.813Z,78.06
2019-05-01T06:39:11.625Z,78.65
2019-05-01T06:41:44.745Z,78.08
2019-05-01T06:44:33.350Z,77.69
2019-05-01T06:47:09.654Z,77.59
2019-05-01T06:50:07.700Z,77.18
2019-05-01T06:52:42.171Z,75.44
2019-05-01T06:55:15.605Z,73.78
2019-05-01T06:57:49.098Z,72.57
2019-05-01T07:00:20.458Z,72.26
2019-05-01T07:02:55.594Z,73.04
2019-05-01T07:05:30.603Z,73.72
2019-05-01T07:08:04.435Z,73.63
2019-05-01T07:10:43.569Z,73.05
2019-05-01T07:13:11.541Z,73.81
2019-05-01T07:15:43.309Z,72.84
2019-05-01T07:18:18.861Z,73.24
2019-05-01T07:20:53.609Z,72.84
2019-05-01T07:23:25.651Z,72.21
2019-05-01T07:25:57.003Z,70.89
2019-05-01T07:28:34.416Z,70.92
2019-05-01T07:31:11.584Z,69.17
2019-05-01T07:33:46.996Z,67.36
2019-05-01T07:36:17.051Z,67.25
2019-05-01T07:38:49.001Z,67.23
2019-05-01T07:41:20.025Z,67.46
2019-05-01T07:44:10.775Z,64.98
2019-05-01T07:46:56.142Z,65.73
2019-05-01T07:49:57.146Z,64.18
2019-05-01T07:52:29.620Z,62.39
2019-05-01T07:55:01.579Z,62.93
2019-05-01T07:57:39.460Z,56.23
2019-05-01T08:00:14.435Z,53.06
2019-05-01T08:02:45.644Z,55.09
2019-05-01T08:05:16.734Z,54.25
2019-05-01T08:07:50.890Z,54.66
2019-05-01T08:10:25.848Z,52.01
2019-05-01T08:13:00.253Z,50.66
2019-05-01T08:15:32.716Z,50.09
2019-05-01T08:18:28.047Z,49.46
2019-05-01T08:21:29.920Z,48.20
2019-05-01T08:24:05.160Z,48.60
2019-05-01T08:26:39.739Z,48.98
2019-05-01T08:29:28.437Z,47.48
2019-05-01T08:32:10.264Z,45.82
2019-05-01T08:34:48.878Z,47.15
2019-05-01T08:37:17.809Z,47.25
2019-05-01T08:39:49.702Z,45.64
2019-05-01T08:42:22.689Z,47.02
2019-05-01T08:45:11.677Z,47.06
2019-05-01T08:47:46.985Z,48.16
2019-05-01T08:50:24.238Z,47.62
2019-05-01T08:52:53.052Z,49.00
2019-05-01T08:55:24.300Z,47.10
2019-05-01T08:57:55.807Z,46.97
2019-05-01T09:00:31.052Z,46.83
2019-05-01T09:03:08.286Z,47.57
2019-05-01T09:05:35.968Z,47.67
2019-05-01T09:08:09.247Z,46.45
2019-05-01T09:10:41.536Z,48.33
2019-05-01T09:13:14.551Z,46.26
2019-05-01T09:15:48.297Z,46.71
2019-05-01T09:18:19.454Z,47.37
2019-05-01T09:20:52.777Z,44.46
2019-05-01T09:23:23.930Z,47.23
2019-05-01T09:26:14.666Z,45.39
2019-05-01T09:28:43.308Z,45.83
2019-05-01T09:31:16.297Z,44.22
2019-05-01T09:33:52.459Z,46.45
2019-05-01T09:36:25.145Z,46.32
2019-05-01T09:38:58.748Z,46.73
2019-05-01T09:41:38.253Z,46.46
2019-05-01T09:44:10.026Z,47.96
2019-05-01T09:46:38.738Z,46.05
2019-05-01T09:49:14.340Z,47.01
2019-05-01T09:51:53.062Z,45.51
2019-05-01T09:54:58.236Z,46.20
2019-05-01T09:57:29.384Z,45.81
2019-05-01T10:00:00.530Z,47.30
2019-05-01T10:02:32.718Z,46.69
2019-05-01T10:05:06.636Z,48.10
2019-05-01T10:07:39.290Z,45.20
2019-05-01T10:10:11.766Z,46.02
2019-05-01T10:12:46.997Z,46.04
2019-05-01T10:15:16.078Z,45.93
2019-05-01T10:17:47.330Z,45.99
2019-05-01T10:20:18.390Z,46.08
2019-05-01T10:22:49.459Z,46.93
2019-05-01T10:25:20.592Z,46.27
2019-05-01T10:27:58.112Z,45.51
2019-05-01T10:30:45.940Z,45.24
2019-05-01T10:33:21.156Z,45.67
2019-05-01T10:36:18.622Z,45.23
2019-05-01T10:38:46.905Z,44.34
2019-05-01T10:41:18.752Z,45.17
2019-05-01T10:43:50.098Z,45.02
2019-05-01T10:46:21.297Z,43.73
2019-05-01T10:48:57.035Z,44.48
2019-05-01T10:51:29.885Z,44.33
2019-05-01T10:54:04.012Z,44.38
2019-05-01T10:56:35.082Z,43.90
2019-05-01T10:59:06.946Z,44.50
2019-05-01T11:02:04.561Z,43.47
2019-05-01T11:04:37.627Z,43.66
2019-05-01T11:07:09.294Z,43.18
2019-05-01T11:09:42.303Z,43.68
2019-05-01T11:12:14.969Z,42.89
2019-05-01T11:14:46.138Z,44.18
2019-05-01T11:17:17.229Z,42.89
2019-05-01T11:19:48.290Z,42.88
2019-05-01T11:22:19.782Z,43.90
2019-05-01T11:24:50.824Z,43.74
2019-05-01T11:27:22.481Z,43.58
2019-05-01T11:29:55.208Z,43.12
2019-05-01T11:32:49.952Z,42.81
2019-05-01T11:35:49.551Z,42.71
2019-05-01T11:38:30.154Z,42.40
2019-05-01T11:41:04.776Z,41.91
2019-05-01T11:43:36.386Z,42.16
2019-05-01T11:46:10.025Z,42.03
2019-05-01T11:48:44.300Z,41.72
2019-05-01T11:51:14.629Z,41.74
2019-05-01T11:53:48.798Z,43.21
2019-05-01T11:56:21.971Z,44.46
2019-05-01T11:58:53.230Z,43.81
2019-05-01T12:01:26.210Z,43.13
2019-05-01T12:03:57.447Z,41.83
2019-05-01T12:06:29.719Z,42.86
2019-05-01T12:09:02.605Z,41.96
2019-05-01T12:11:35.392Z,42.92
2019-05-01T12:14:07.093Z,42.27
2019-05-01T12:16:56.143Z,42.28
2019-05-01T12:19:27.649Z,43.33
2019-05-01T12:21:59.013Z,42.22
2019-05-01T12:24:31.713Z,42.86
2019-05-01T12:27:02.841Z,42.83
2019-05-01T12:29:35.423Z,41.64
2019-05-01T12:32:06.780Z,42.60
2019-05-01T12:34:39.059Z,43.17
2019-05-01T12:37:42.200Z,42.99
2019-05-01T12:40:20.404Z,42.77
2019-05-01T12:42:53.530Z,43.18
2019-05-01T12:45:24.923Z,43.26
2019-05-01T12:47:58.613Z,42.16
2019-05-01T12:50:29.856Z,43.80
2019-05-01T12:53:26.177Z,43.02
2019-05-01T12:56:17.256Z,43.63
2019-05-01T12:58:51.073Z,43.21
2019-05-01T13:01:24.101Z,42.95
2019-05-01T13:03:55.362Z,42.05
2019-05-01T13:06:27.884Z,42.82
2019-05-01T13:09:00.887Z,43.06
2019-05-01T13:11:32.023Z,42.28
2019-05-01T13:14:04.403Z,42.78
2019-05-01T13:16:36.774Z,42.44
2019-05-01T13:19:09.466Z,43.02
2019-05-01T13:21:42.043Z,42.63
2019-05-01T13:24:13.234Z,42.59
2019-05-01T13:27:11.603Z,42.27
2019-05-01T13:29:48.224Z,42.12
2019-05-01T13:32:45.690Z,41.13
2019-05-01T13:35:17.024Z,42.06
2019-05-01T13:37:48.281Z,42.93
2019-05-01T13:40:20.145Z,42.12
2019-05-01T13:42:51.218Z,42.04
2019-05-01T13:45:23.595Z,41.97
2019-05-01T13:47:55.047Z,41.42
2019-05-01T13:50:26.785Z,41.51
2019-05-01T13:52:57.940Z,41.96
2019-05-01T13:55:29.143Z,41.88
2019-05-01T13:58:01.849Z,42.14
2019-05-01T14:00:33.518Z,43.35
2019-05-01T14:03:06.710Z,42.76
2019-05-01T14:05:37.925Z,42.77
2019-05-01T14:08:09.421Z,42.37
2019-05-01T14:10:41.445Z,42.93
2019-05-01T14:13:12.792Z,43.09
2019-05-01T14:15:44.380Z,43.99
2019-05-01T14:18:15.774Z,43.07
2019-05-01T14:20:59.137Z,43.91
2019-05-01T14:23:40.800Z,42.79
2019-05-01T14:26:12.017Z,43.64
2019-05-01T14:28:45.097Z,42.83
2019-05-01T14:31:16.576Z,42.83
2019-05-01T14:33:49.645Z,43.17
2019-05-01T14:36:20.896Z,44.54
2019-05-01T14:38:53.481Z,44.44
2019-05-01T14:41:25.955Z,44.27
2019-05-01T14:43:57.103Z,44.71
2019-05-01T14:46:28.728Z,44.18
2019-05-01T14:49:01.743Z,45.21
2019-05-01T14:51:33.235Z,46.12
2019-05-01T14:54:06.092Z,45.56
2019-05-01T14:56:37.573Z,45.73
2019-05-01T14:59:08.698Z,46.11
2019-05-01T15:01:39.942Z,45.09
2019-05-01T15:04:15.695Z,45.31
2019-05-01T15:06:49.397Z,44.61
2019-05-01T15:09:20.828Z,45.35
2019-05-01T15:11:53.953Z,45.75
2019-05-01T15:14:43.715Z,45.58
2019-05-01T15:17:25.844Z,45.33
2019-05-01T15:20:05.588Z,46.31
2019-05-01T15:22:36.587Z,46.69
2019-05-01T15:25:08.803Z,46.79
2019-05-01T15:27:39.864Z,46.80
2019-05-01T15:30:12.879Z,46.61
2019-05-01T15:32:44.361Z,46.55
2019-05-01T15:35:15.482Z,47.43
2019-05-01T15:37:56.545Z,48.07
2019-05-01T15:40:33.377Z,48.29
2019-05-01T15:43:25.166Z,48.94
2019-05-01T15:45:56.649Z,49.43
2019-05-01T15:48:31.467Z,49.32
2019-05-01T15:51:02.753Z,50.50
2019-05-01T15:53:34.988Z,50.24
2019-05-01T15:56:07.766Z,51.08
2019-05-01T15:58:40.236Z,50.47
2019-05-01T16:01:12.734Z,50.72
2019-05-01T16:03:45.930Z,50.72
2019-05-01T16:06:18.326Z,51.09
2019-05-01T16:08:49.444Z,52.03
2019-05-01T16:11:39.536Z,51.76
2019-05-01T16:14:12.430Z,52.13
2019-05-01T16:16:45.501Z,52.35
2019-05-01T16:19:17.062Z,52.78
2019-05-01T16:21:49.700Z,53.01
2019-05-01T16:24:20.856Z,53.27
2019-05-01T16:26:53.107Z,53.42
2019-05-01T16:29:24.315Z,54.23
2019-05-01T16:31:57.003Z,53.74
2019-05-01T16:34:28.504Z,54.04
2019-05-01T16:37:01.006Z,54.52
2019-05-01T16:39:51.571Z,54.68
2019-05-01T16:42:43.844Z,54.76
2019-05-01T16:45:15.831Z,54.81
2019-05-01T16:47:47.082Z,54.95
2019-05-01T16:50:20.159Z,55.44
2019-05-01T16:52:51.771Z,55.09
2019-05-01T16:55:23.957Z,56.13
2019-05-01T16:57:55.499Z,56.16
2019-05-01T17:01:14.412Z,56.04
2019-05-01T17:03:57.860Z,55.98
2019-05-01T17:06:40.858Z,56.03
2019-05-01T17:09:33.159Z,57.06
2019-05-01T17:12:06.754Z,56.86
2019-05-01T17:14:38.022Z,57.16
2019-05-01T17:17:13.771Z,56.71
2019-05-01T17:19:45.499Z,57.06
2019-05-01T17:22:17.993Z,57.67
2019-05-01T17:24:50.797Z,58.40
2019-05-01T17:27:23.002Z,58.88
2019-05-01T17:29:56.853Z,58.59
2019-05-01T17:32:29.069Z,58.65
2019-05-01T17:35:06.527Z,58.55
2019-05-01T17:37:35.534Z,58.61
2019-05-01T17:40:08.881Z,58.63
2019-05-01T17:42:40.480Z,59.26
2019-05-01T17:45:12.674Z,58.70
2019-05-01T17:47:46.064Z,59.98
2019-05-01T17:50:23.405Z,59.50
2019-05-01T17:52:57.598Z,59.17
2019-05-01T17:55:30.749Z,59.76
2019-05-01T17:58:04.484Z,60.86
2019-05-01T18:00:58.837Z,61.10
2019-05-01T18:03:42.596Z,60.99
2019-05-01T18:06:26.422Z,60.81
2019-05-01T18:09:03.185Z,61.62
2019-05-01T18:11:34.945Z,62.18
2019-05-01T18:14:06.705Z,62.78
2019-05-01T18:16:40.022Z,62.55
2019-05-01T18:19:11.624Z,63.03
2019-05-01T18:21:46.773Z,63.06
2019-05-01T18:24:44.463Z,63.46
2019-05-01T18:27:49.952Z,64.00
2019-05-01T18:30:23.002Z,64.22
2019-05-01T18:32:57.771Z,65.17
2019-05-01T18:35:30.455Z,65.10
2019-05-01T18:38:11.513Z,65.71
2019-05-01T18:40:47.159Z,66.26
2019-05-01T18:43:19.779Z,66.42
2019-05-01T18:45:55.126Z,67.03
2019-05-01T18:48:27.416Z,66.56
2019-05-01T18:51:01.073Z,67.03
2019-05-01T18:53:33.902Z,67.66
2019-05-01T18:56:05.717Z,67.15
2019-05-01T18:58:44.366Z,67.43
2019-05-01T19:01:24.052Z,67.74
2019-05-01T19:03:59.691Z,67.91
2019-05-01T19:06:41.115Z,68.27
2019-05-01T19:09:15.089Z,68.70
2019-05-01T19:11:44.897Z,69.56
2019-05-01T19:14:23.511Z,69.49
2019-05-01T19:17:03.728Z,69.45
2019-05-01T19:19:38.514Z,69.82
2019-05-01T19:22:12.429Z,70.24
2019-05-01T19:24:44.920Z,70.46
2019-05-01T19:27:18.923Z,70.44
2019-05-01T19:29:49.227Z,70.60
2019-05-01T19:32:23.971Z,70.84
2019-05-01T19:34:55.477Z,70.90
2019-05-01T19:37:30.954Z,71.70
2019-05-01T19:40:03.283Z,71.89
2019-05-01T19:42:40.074Z,71.88
2019-05-01T19:45:13.951Z,72.32
2019-05-01T19:47:45.919Z,72.96
2019-05-01T19:50:19.422Z,73.22
2019-05-01T19:52:52.510Z,72.31
2019-05-01T19:55:26.443Z,72.60
2019-05-01T19:57:59.114Z,72.31
2019-05-01T20:00:59.584Z,72.24
2019-05-01T20:03:36.039Z,73.00
2019-05-01T20:06:08.155Z,73.06
2019-05-01T20:08:39.889Z,73.06
2019-05-01T20:11:11.595Z,73.58
2019-05-01T20:13:42.810Z,74.14
2019-05-01T20:16:23.933Z,74.77
2019-05-01T20:18:55.095Z,74.51
2019-05-01T20:21:27.082Z,74.46
2019-05-01T20:23:58.152Z,75.03
2019-05-01T20:26:32.015Z,75.02
2019-05-01T20:29:03.669Z,75.52
2019-05-01T20:31:35.263Z,75.54
2019-05-01T20:34:06.559Z,74.48
2019-05-01T20:36:37.826Z,75.30
2019-05-01T20:39:12.029Z,75.02
2019-05-01T20:41:43.218Z,74.97
2019-05-01T20:44:23.374Z,75.57
2019-05-01T20:46:47.591Z,76.03
2019-05-01T20:49:20.245Z,75.39
2019-05-01T20:51:51.294Z,76.27
2019-05-01T20:54:22.795Z,76.99
2019-05-01T20:57:05.048Z,77.74
2019-05-01T20:59:39.182Z,77.98
2019-05-01T21:02:11.702Z,78.12
2019-05-01T21:05:02.020Z,78.28
2019-05-01T21:07:47.468Z,78.18
2019-05-01T21:10:24.924Z,78.57
2019-05-01T21:12:56.658Z,78.64
2019-05-01T21:15:27.824Z,78.16
2019-05-01T21:18:01.398Z,78.14
2019-05-01T21:20:33.911Z,78.21
2019-05-01T21:23:10.631Z,78.88
2019-05-01T21:25:38.420Z,78.58
2019-05-01T21:28:10.796Z,79.47
2019-05-01T21:30:43.991Z,79.74
2019-05-01T21:33:15.099Z,79.65
2019-05-01T21:35:47.924Z,79.72
2019-05-01T21:38:21.152Z,80.45
2019-05-01T21:40:53.836Z,80.74
2019-05-01T21:43:33.214Z,80.88
2019-05-01T21:46:03.817Z,81.00
2019-05-01T21:48:34.976Z,81.43
2019-05-01T21:51:07.640Z,81.19
2019-05-01T21:53:42.692Z,81.61
2019-05-01T21:56:14.289Z,81.53
2019-05-01T21:58:45.439Z,81.59
2019-05-01T22:01:17.099Z,81.80
2019-05-01T22:03:52.610Z,82.47
2019-05-01T22:06:25.226Z,81.61
2019-05-01T22:08:56.709Z,82.66
2019-05-01T22:11:27.948Z,82.15
2019-05-01T22:14:00.250Z,82.57
2019-05-01T22:16:33.296Z,83.06
2019-05-01T22:19:16.335Z,83.67
2019-05-01T22:22:14.581Z,83.59
2019-05-01T22:24:53.923Z,84.24
2019-05-01T22:27:32.129Z,83.17
2019-05-01T22:30:12.614Z,83.61
2019-05-01T22:32:47.726Z,83.79
2019-05-01T22:35:25.412Z,83.47
2019-05-01T22:37:56.566Z,84.36
2019-05-01T22:41:05.521Z,84.34
2019-05-01T22:43:27.653Z,83.83
2019-05-01T22:46:01.521Z,84.64
2019-05-01T22:48:33.695Z,84.67
2019-05-01T22:51:15.385Z,84.69
2019-05-01T22:53:48.790Z,84.41
2019-05-01T22:56:20.442Z,84.94
2019-05-01T22:58:51.501Z,84.63
2019-05-01T23:01:23.291Z,85.29
2019-05-01T23:04:00.123Z,85.53
2019-05-01T23:06:31.322Z,84.94
2019-05-01T23:09:03.238Z,85.22
2019-05-01T23:11:37.851Z,85.63
2019-05-01T23:14:12.219Z,85.23
2019-05-01T23:17:03.369Z,85.26
2019-05-01T23:19:34.534Z,85.91
2019-05-01T23:22:07.790Z,85.85
2019-05-01T23:24:41.131Z,86.50
2019-05-01T23:27:12.508Z,87.09
2019-05-01T23:29:44.274Z,87.22
2019-05-01T23:32:15.408Z,86.96
2019-05-01T23:34:46.640Z,87.01
2019-05-01T23:37:20.242Z,86.47
2019-05-01T23:39:52.720Z,87.15
2019-05-01T23:42:24.106Z,87.58
2019-05-01T23:44:55.245Z,87.40
2019-05-01T23:47:27.694Z,87.37
2019-05-01T23:49:58.949Z,87.80
2019-05-01T23:52:34.028Z,88.08
2019-05-01T23:55:04.518Z,87.45
2019-05-01T23:57:37.405Z,86.98
